sensor_id;sensor_type;location;lat;lon;timestamp;P1;durP1;ratioP1;P2;durP2;ratioP2
75129;SDS011;63703;44.716;37.846;2022-11-20T00:00:43;20.35;;;7.38;;
75129;SDS011;63703;44.716;37.846;2022-11-20T00:03:09;23.85;;;7.90;;
75129;SDS011;63703;44.716;37.846;2022-11-20T00:05:35;23.23;;;7.60;;
75129;SDS011;63703;44.716;37.846;2022-11-20T00:08:01;22.25;;;7.50;;
75129;SDS011;63703;44.716;37.846;2022-11-20T00:10:27;29.42;;;7.45;;
75129;SDS011;63703;44.716;37.846;2022-11-20T00:12:53;22.92;;;7.55;;
75129;SDS011;63703;44.716;37.846;2022-11-20T00:15:19;23.92;;;7.32;;
75129;SDS011;63703;44.716;37.846;2022-11-20T00:17:47;24.55;;;6.30;;
75129;SDS011;63703;44.716;37.846;2022-11-20T00:20:13;20.90;;;6.40;;
75129;SDS011;63703;44.716;37.846;2022-11-20T00:22:39;21.95;;;6.80;;
75129;SDS011;63703;44.716;37.846;2022-11-20T00:25:05;21.90;;;7.78;;
75129;SDS011;63703;44.716;37.846;2022-11-20T00:27:31;25.80;;;6.25;;
75129;SDS011;63703;44.716;37.846;2022-11-20T00:29:57;20.77;;;5.47;;
75129;SDS011;63703;44.716;37.846;2022-11-20T00:32:23;20.60;;;5.43;;
75129;SDS011;63703;44.716;37.846;2022-11-20T00:34:49;16.98;;;6.80;;
75129;SDS011;63703;44.716;37.846;2022-11-20T00:37:15;21.25;;;5.93;;
75129;SDS011;63703;44.716;37.846;2022-11-20T00:39:41;17.45;;;5.50;;
75129;SDS011;63703;44.716;37.846;2022-11-20T00:42:06;18.40;;;5.88;;
75129;SDS011;63703;44.716;37.846;2022-11-20T00:44:32;21.80;;;6.03;;
75129;SDS011;63703;44.716;37.846;2022-11-20T00:46:58;16.70;;;6.20;;
75129;SDS011;63703;44.716;37.846;2022-11-20T00:49:24;17.45;;;5.35;;
75129;SDS011;63703;44.716;37.846;2022-11-20T00:51:50;17.65;;;5.45;;
75129;SDS011;63703;44.716;37.846;2022-11-20T00:54:15;18.55;;;5.75;;
75129;SDS011;63703;44.716;37.846;2022-11-20T00:56:41;18.52;;;5.20;;
75129;SDS011;63703;44.716;37.846;2022-11-20T00:59:08;10.40;;;4.43;;
75129;SDS011;63703;44.716;37.846;2022-11-20T01:01:35;17.83;;;4.20;;
75129;SDS011;63703;44.716;37.846;2022-11-20T01:04:01;15.75;;;5.25;;
75129;SDS011;63703;44.716;37.846;2022-11-20T01:06:29;15.02;;;4.78;;
75129;SDS011;63703;44.716;37.846;2022-11-20T01:08:57;16.33;;;4.68;;
75129;SDS011;63703;44.716;37.846;2022-11-20T01:11:25;14.05;;;4.85;;
75129;SDS011;63703;44.716;37.846;2022-11-20T01:13:53;13.88;;;4.25;;
75129;SDS011;63703;44.716;37.846;2022-11-20T01:16:21;13.77;;;4.72;;
75129;SDS011;63703;44.716;37.846;2022-11-20T01:18:49;14.73;;;4.68;;
75129;SDS011;63703;44.716;37.846;2022-11-20T01:21:18;16.85;;;4.25;;
75129;SDS011;63703;44.716;37.846;2022-11-20T01:23:46;21.58;;;6.30;;
75129;SDS011;63703;44.716;37.846;2022-11-20T01:26:14;17.20;;;4.72;;
75129;SDS011;63703;44.716;37.846;2022-11-20T01:28:42;19.73;;;5.05;;
75129;SDS011;63703;44.716;37.846;2022-11-20T01:31:22;14.88;;;5.00;;
75129;SDS011;63703;44.716;37.846;2022-11-20T01:33:51;23.35;;;6.70;;
75129;SDS011;63703;44.716;37.846;2022-11-20T01:36:20;11.68;;;5.43;;
75129;SDS011;63703;44.716;37.846;2022-11-20T01:38:47;20.35;;;5.60;;
75129;SDS011;63703;44.716;37.846;2022-11-20T01:41:16;14.75;;;5.30;;
75129;SDS011;63703;44.716;37.846;2022-11-20T01:44:08;17.70;;;5.72;;
75129;SDS011;63703;44.716;37.846;2022-11-20T01:46:38;16.95;;;5.65;;
75129;SDS011;63703;44.716;37.846;2022-11-20T01:49:16;13.25;;;5.55;;
75129;SDS011;63703;44.716;37.846;2022-11-20T01:51:46;22.00;;;5.90;;
75129;SDS011;63703;44.716;37.846;2022-11-20T01:54:23;15.13;;;5.95;;
75129;SDS011;63703;44.716;37.846;2022-11-20T01:56:55;11.90;;;6.32;;
75129;SDS011;63703;44.716;37.846;2022-11-20T01:59:22;18.13;;;4.70;;
75129;SDS011;63703;44.716;37.846;2022-11-20T02:01:50;22.92;;;7.00;;
75129;SDS011;63703;44.716;37.846;2022-11-20T02:04:16;20.55;;;5.93;;
75129;SDS011;63703;44.716;37.846;2022-11-20T02:06:44;15.15;;;6.13;;
75129;SDS011;63703;44.716;37.846;2022-11-20T02:09:15;18.92;;;6.50;;
75129;SDS011;63703;44.716;37.846;2022-11-20T02:11:41;15.40;;;6.13;;
75129;SDS011;63703;44.716;37.846;2022-11-20T02:14:07;13.77;;;6.32;;
75129;SDS011;63703;44.716;37.846;2022-11-20T02:16:35;18.98;;;7.10;;
75129;SDS011;63703;44.716;37.846;2022-11-20T02:19:06;16.05;;;6.40;;
75129;SDS011;63703;44.716;37.846;2022-11-20T02:24:22;13.95;;;5.88;;
75129;SDS011;63703;44.716;37.846;2022-11-20T02:26:53;16.58;;;6.00;;
75129;SDS011;63703;44.716;37.846;2022-11-20T02:32:23;13.98;;;7.00;;
75129;SDS011;63703;44.716;37.846;2022-11-20T02:34:51;16.27;;;6.47;;
75129;SDS011;63703;44.716;37.846;2022-11-20T02:37:18;17.33;;;5.65;;
75129;SDS011;63703;44.716;37.846;2022-11-20T02:39:49;19.13;;;6.32;;
75129;SDS011;63703;44.716;37.846;2022-11-20T02:42:17;15.25;;;6.90;;
75129;SDS011;63703;44.716;37.846;2022-11-20T02:44:43;20.70;;;5.88;;
75129;SDS011;63703;44.716;37.846;2022-11-20T02:47:09;16.27;;;5.90;;
75129;SDS011;63703;44.716;37.846;2022-11-20T02:49:35;12.20;;;6.95;;
75129;SDS011;63703;44.716;37.846;2022-11-20T02:52:01;15.52;;;5.18;;
75129;SDS011;63703;44.716;37.846;2022-11-20T02:54:27;15.70;;;5.32;;
75129;SDS011;63703;44.716;37.846;2022-11-20T02:56:53;15.02;;;4.70;;
75129;SDS011;63703;44.716;37.846;2022-11-20T02:59:19;18.05;;;6.60;;
75129;SDS011;63703;44.716;37.846;2022-11-20T03:01:44;19.02;;;8.43;;
75129;SDS011;63703;44.716;37.846;2022-11-20T03:04:10;16.48;;;6.63;;
75129;SDS011;63703;44.716;37.846;2022-11-20T03:06:36;14.73;;;7.18;;
75129;SDS011;63703;44.716;37.846;2022-11-20T03:09:02;22.95;;;7.45;;
75129;SDS011;63703;44.716;37.846;2022-11-20T03:11:28;13.70;;;5.40;;
75129;SDS011;63703;44.716;37.846;2022-11-20T03:13:54;17.35;;;6.97;;
75129;SDS011;63703;44.716;37.846;2022-11-20T03:16:20;14.00;;;7.15;;
75129;SDS011;63703;44.716;37.846;2022-11-20T03:18:47;12.30;;;5.20;;
75129;SDS011;63703;44.716;37.846;2022-11-20T03:21:14;13.23;;;7.10;;
75129;SDS011;63703;44.716;37.846;2022-11-20T03:23:41;20.98;;;8.57;;
75129;SDS011;63703;44.716;37.846;2022-11-20T03:26:17;11.77;;;6.32;;
75129;SDS011;63703;44.716;37.846;2022-11-20T03:28:51;13.25;;;7.13;;
75129;SDS011;63703;44.716;37.846;2022-11-20T03:31:19;17.58;;;7.03;;
75129;SDS011;63703;44.716;37.846;2022-11-20T03:33:50;19.85;;;6.10;;
75129;SDS011;63703;44.716;37.846;2022-11-20T03:36:17;19.73;;;6.78;;
75129;SDS011;63703;44.716;37.846;2022-11-20T03:38:44;15.60;;;7.13;;
75129;SDS011;63703;44.716;37.846;2022-11-20T03:41:11;17.17;;;7.47;;
75129;SDS011;63703;44.716;37.846;2022-11-20T03:43:38;16.13;;;6.50;;
75129;SDS011;63703;44.716;37.846;2022-11-20T03:46:04;18.55;;;7.85;;
75129;SDS011;63703;44.716;37.846;2022-11-20T03:48:31;15.68;;;7.30;;
75129;SDS011;63703;44.716;37.846;2022-11-20T03:51:17;16.67;;;7.38;;
75129;SDS011;63703;44.716;37.846;2022-11-20T03:53:48;18.40;;;8.48;;
75129;SDS011;63703;44.716;37.846;2022-11-20T03:56:16;20.38;;;7.55;;
75129;SDS011;63703;44.716;37.846;2022-11-20T03:58:43;15.90;;;8.07;;
75129;SDS011;63703;44.716;37.846;2022-11-20T04:01:10;17.13;;;6.38;;
75129;SDS011;63703;44.716;37.846;2022-11-20T04:03:37;18.13;;;8.75;;
75129;SDS011;63703;44.716;37.846;2022-11-20T04:06:05;18.40;;;8.25;;
75129;SDS011;63703;44.716;37.846;2022-11-20T04:08:33;18.50;;;7.70;;
75129;SDS011;63703;44.716;37.846;2022-11-20T04:11:12;17.45;;;8.20;;
75129;SDS011;63703;44.716;37.846;2022-11-20T04:13:40;21.42;;;8.52;;
75129;SDS011;63703;44.716;37.846;2022-11-20T04:16:06;21.48;;;8.70;;
75129;SDS011;63703;44.716;37.846;2022-11-20T04:18:33;15.98;;;7.30;;
75129;SDS011;63703;44.716;37.846;2022-11-20T04:21:00;18.23;;;6.95;;
75129;SDS011;63703;44.716;37.846;2022-11-20T04:23:26;23.20;;;8.57;;
75129;SDS011;63703;44.716;37.846;2022-11-20T04:25:53;18.10;;;7.28;;
75129;SDS011;63703;44.716;37.846;2022-11-20T04:28:19;15.77;;;7.55;;
75129;SDS011;63703;44.716;37.846;2022-11-20T04:30:45;12.23;;;7.75;;
75129;SDS011;63703;44.716;37.846;2022-11-20T04:33:11;16.17;;;7.28;;
75129;SDS011;63703;44.716;37.846;2022-11-20T04:35:37;16.30;;;7.10;;
75129;SDS011;63703;44.716;37.846;2022-11-20T04:38:03;17.83;;;6.80;;
75129;SDS011;63703;44.716;37.846;2022-11-20T04:40:30;16.08;;;6.90;;
75129;SDS011;63703;44.716;37.846;2022-11-20T04:42:56;17.20;;;7.00;;
75129;SDS011;63703;44.716;37.846;2022-11-20T04:45:22;12.73;;;6.18;;
75129;SDS011;63703;44.716;37.846;2022-11-20T04:47:48;13.98;;;6.60;;
75129;SDS011;63703;44.716;37.846;2022-11-20T04:50:14;10.02;;;5.65;;
75129;SDS011;63703;44.716;37.846;2022-11-20T04:52:40;10.30;;;5.30;;
75129;SDS011;63703;44.716;37.846;2022-11-20T04:55:06;11.80;;;5.53;;
75129;SDS011;63703;44.716;37.846;2022-11-20T04:57:33;10.40;;;6.07;;
75129;SDS011;63703;44.716;37.846;2022-11-20T04:59:59;13.13;;;5.50;;
75129;SDS011;63703;44.716;37.846;2022-11-20T05:02:25;13.73;;;5.53;;
75129;SDS011;63703;44.716;37.846;2022-11-20T05:04:50;8.38;;;3.40;;
75129;SDS011;63703;44.716;37.846;2022-11-20T05:07:16;12.10;;;5.68;;
75129;SDS011;63703;44.716;37.846;2022-11-20T05:09:42;8.13;;;4.35;;
75129;SDS011;63703;44.716;37.846;2022-11-20T05:12:08;9.00;;;5.13;;
75129;SDS011;63703;44.716;37.846;2022-11-20T05:14:34;8.75;;;5.57;;
75129;SDS011;63703;44.716;37.846;2022-11-20T05:17:00;10.35;;;5.65;;
75129;SDS011;63703;44.716;37.846;2022-11-20T05:19:26;13.15;;;4.85;;
75129;SDS011;63703;44.716;37.846;2022-11-20T05:21:52;9.05;;;5.18;;
75129;SDS011;63703;44.716;37.846;2022-11-20T05:24:18;8.98;;;4.28;;
75129;SDS011;63703;44.716;37.846;2022-11-20T05:26:44;10.27;;;4.97;;
75129;SDS011;63703;44.716;37.846;2022-11-20T05:29:12;10.68;;;4.10;;
75129;SDS011;63703;44.716;37.846;2022-11-20T05:31:39;9.90;;;4.43;;
75129;SDS011;63703;44.716;37.846;2022-11-20T05:34:06;10.02;;;4.15;;
75129;SDS011;63703;44.716;37.846;2022-11-20T05:36:32;9.02;;;4.35;;
75129;SDS011;63703;44.716;37.846;2022-11-20T05:38:58;7.20;;;3.33;;
75129;SDS011;63703;44.716;37.846;2022-11-20T05:41:24;9.18;;;3.80;;
75129;SDS011;63703;44.716;37.846;2022-11-20T05:43:50;8.82;;;5.03;;
75129;SDS011;63703;44.716;37.846;2022-11-20T05:46:18;8.32;;;5.25;;
75129;SDS011;63703;44.716;37.846;2022-11-20T05:48:45;8.13;;;3.83;;
75129;SDS011;63703;44.716;37.846;2022-11-20T05:51:12;9.77;;;4.28;;
75129;SDS011;63703;44.716;37.846;2022-11-20T05:53:40;11.70;;;3.47;;
75129;SDS011;63703;44.716;37.846;2022-11-20T05:56:10;7.32;;;4.47;;
75129;SDS011;63703;44.716;37.846;2022-11-20T05:58:38;8.20;;;5.35;;
75129;SDS011;63703;44.716;37.846;2022-11-20T06:01:05;11.65;;;4.55;;
75129;SDS011;63703;44.716;37.846;2022-11-20T06:03:35;9.60;;;4.43;;
75129;SDS011;63703;44.716;37.846;2022-11-20T06:06:02;7.65;;;3.92;;
75129;SDS011;63703;44.716;37.846;2022-11-20T06:08:30;9.88;;;3.35;;
75129;SDS011;63703;44.716;37.846;2022-11-20T06:10:56;6.53;;;3.67;;
75129;SDS011;63703;44.716;37.846;2022-11-20T06:13:22;8.55;;;4.45;;
75129;SDS011;63703;44.716;37.846;2022-11-20T06:15:52;8.10;;;4.53;;
75129;SDS011;63703;44.716;37.846;2022-11-20T06:18:19;7.70;;;3.45;;
75129;SDS011;63703;44.716;37.846;2022-11-20T06:20:45;5.95;;;3.95;;
75129;SDS011;63703;44.716;37.846;2022-11-20T06:23:12;7.45;;;2.05;;
75129;SDS011;63703;44.716;37.846;2022-11-20T06:25:39;8.23;;;4.18;;
75129;SDS011;63703;44.716;37.846;2022-11-20T06:28:06;6.68;;;4.18;;
75129;SDS011;63703;44.716;37.846;2022-11-20T06:30:32;9.70;;;4.38;;
75129;SDS011;63703;44.716;37.846;2022-11-20T06:32:58;10.10;;;3.28;;
75129;SDS011;63703;44.716;37.846;2022-11-20T06:35:24;10.38;;;4.45;;
75129;SDS011;63703;44.716;37.846;2022-11-20T06:37:50;11.13;;;4.57;;
75129;SDS011;63703;44.716;37.846;2022-11-20T06:40:16;10.65;;;4.13;;
75129;SDS011;63703;44.716;37.846;2022-11-20T06:42:42;9.25;;;3.67;;
75129;SDS011;63703;44.716;37.846;2022-11-20T06:45:08;8.85;;;4.55;;
75129;SDS011;63703;44.716;37.846;2022-11-20T06:47:34;10.25;;;4.93;;
75129;SDS011;63703;44.716;37.846;2022-11-20T06:50:00;7.32;;;4.85;;
75129;SDS011;63703;44.716;37.846;2022-11-20T06:52:26;8.68;;;3.60;;
75129;SDS011;63703;44.716;37.846;2022-11-20T06:54:52;11.27;;;4.00;;
75129;SDS011;63703;44.716;37.846;2022-11-20T06:57:18;7.93;;;3.95;;
75129;SDS011;63703;44.716;37.846;2022-11-20T06:59:44;6.38;;;4.15;;
75129;SDS011;63703;44.716;37.846;2022-11-20T07:02:10;7.25;;;3.78;;
75129;SDS011;63703;44.716;37.846;2022-11-20T07:04:37;12.75;;;5.22;;
75129;SDS011;63703;44.716;37.846;2022-11-20T07:07:04;9.02;;;3.17;;
75129;SDS011;63703;44.716;37.846;2022-11-20T07:09:31;7.70;;;4.38;;
75129;SDS011;63703;44.716;37.846;2022-11-20T07:11:58;7.75;;;4.25;;
75129;SDS011;63703;44.716;37.846;2022-11-20T07:14:23;7.93;;;4.75;;
75129;SDS011;63703;44.716;37.846;2022-11-20T07:16:49;9.77;;;4.90;;
75129;SDS011;63703;44.716;37.846;2022-11-20T07:19:15;7.63;;;3.13;;
75129;SDS011;63703;44.716;37.846;2022-11-20T07:21:41;9.05;;;4.13;;
75129;SDS011;63703;44.716;37.846;2022-11-20T07:24:07;9.23;;;3.40;;
75129;SDS011;63703;44.716;37.846;2022-11-20T07:26:33;9.77;;;4.65;;
75129;SDS011;63703;44.716;37.846;2022-11-20T07:28:59;10.60;;;3.88;;
75129;SDS011;63703;44.716;37.846;2022-11-20T07:31:25;9.02;;;3.72;;
75129;SDS011;63703;44.716;37.846;2022-11-20T07:33:50;7.95;;;4.13;;
75129;SDS011;63703;44.716;37.846;2022-11-20T07:36:16;7.60;;;3.08;;
75129;SDS011;63703;44.716;37.846;2022-11-20T07:38:42;8.18;;;4.10;;
75129;SDS011;63703;44.716;37.846;2022-11-20T07:41:08;8.38;;;3.65;;
75129;SDS011;63703;44.716;37.846;2022-11-20T07:43:34;10.10;;;4.43;;
75129;SDS011;63703;44.716;37.846;2022-11-20T07:46:00;11.38;;;4.13;;
75129;SDS011;63703;44.716;37.846;2022-11-20T07:48:26;8.70;;;4.30;;
75129;SDS011;63703;44.716;37.846;2022-11-20T07:50:58;7.03;;;3.22;;
75129;SDS011;63703;44.716;37.846;2022-11-20T07:53:24;7.95;;;3.88;;
75129;SDS011;63703;44.716;37.846;2022-11-20T07:55:50;11.98;;;4.82;;
75129;SDS011;63703;44.716;37.846;2022-11-20T07:58:18;5.15;;;2.75;;
75129;SDS011;63703;44.716;37.846;2022-11-20T08:00:45;6.57;;;3.83;;
75129;SDS011;63703;44.716;37.846;2022-11-20T08:03:11;11.05;;;3.40;;
75129;SDS011;63703;44.716;37.846;2022-11-20T08:05:38;9.05;;;3.65;;
75129;SDS011;63703;44.716;37.846;2022-11-20T08:08:03;6.55;;;3.15;;
75129;SDS011;63703;44.716;37.846;2022-11-20T08:10:30;6.15;;;4.22;;
75129;SDS011;63703;44.716;37.846;2022-11-20T08:12:55;8.63;;;3.00;;
75129;SDS011;63703;44.716;37.846;2022-11-20T08:15:40;5.72;;;3.28;;
75129;SDS011;63703;44.716;37.846;2022-11-20T08:18:07;8.75;;;3.40;;
75129;SDS011;63703;44.716;37.846;2022-11-20T08:20:35;7.43;;;3.53;;
75129;SDS011;63703;44.716;37.846;2022-11-20T08:23:02;6.82;;;3.72;;
75129;SDS011;63703;44.716;37.846;2022-11-20T08:25:31;7.82;;;2.22;;
75129;SDS011;63703;44.716;37.846;2022-11-20T08:28:00;6.55;;;3.28;;
75129;SDS011;63703;44.716;37.846;2022-11-20T08:30:27;5.65;;;3.10;;
75129;SDS011;63703;44.716;37.846;2022-11-20T08:32:54;6.40;;;2.28;;
75129;SDS011;63703;44.716;37.846;2022-11-20T08:35:23;5.72;;;2.33;;
75129;SDS011;63703;44.716;37.846;2022-11-20T08:37:49;6.72;;;2.90;;
75129;SDS011;63703;44.716;37.846;2022-11-20T08:40:15;7.43;;;4.15;;
75129;SDS011;63703;44.716;37.846;2022-11-20T08:42:47;19.15;;;13.43;;
75129;SDS011;63703;44.716;37.846;2022-11-20T08:45:14;13.55;;;8.60;;
75129;SDS011;63703;44.716;37.846;2022-11-20T08:47:41;19.35;;;11.73;;
75129;SDS011;63703;44.716;37.846;2022-11-20T08:50:08;10.55;;;5.78;;
75129;SDS011;63703;44.716;37.846;2022-11-20T08:52:37;8.52;;;5.72;;
75129;SDS011;63703;44.716;37.846;2022-11-20T08:55:04;7.45;;;4.50;;
75129;SDS011;63703;44.716;37.846;2022-11-20T08:57:31;7.47;;;2.22;;
75129;SDS011;63703;44.716;37.846;2022-11-20T08:59:58;6.10;;;3.03;;
75129;SDS011;63703;44.716;37.846;2022-11-20T09:02:24;8.20;;;4.75;;
75129;SDS011;63703;44.716;37.846;2022-11-20T09:04:50;9.80;;;4.18;;
75129;SDS011;63703;44.716;37.846;2022-11-20T09:07:16;22.08;;;13.60;;
75129;SDS011;63703;44.716;37.846;2022-11-20T09:09:42;7.10;;;4.40;;
75129;SDS011;63703;44.716;37.846;2022-11-20T09:12:08;7.95;;;4.10;;
75129;SDS011;63703;44.716;37.846;2022-11-20T09:14:34;7.70;;;3.50;;
75129;SDS011;63703;44.716;37.846;2022-11-20T09:17:00;5.90;;;2.45;;
75129;SDS011;63703;44.716;37.846;2022-11-20T09:19:26;5.63;;;2.10;;
75129;SDS011;63703;44.716;37.846;2022-11-20T09:21:52;6.95;;;3.20;;
75129;SDS011;63703;44.716;37.846;2022-11-20T09:24:18;7.53;;;3.78;;
75129;SDS011;63703;44.716;37.846;2022-11-20T09:26:44;6.13;;;3.58;;
75129;SDS011;63703;44.716;37.846;2022-11-20T09:31:36;5.95;;;2.63;;
75129;SDS011;63703;44.716;37.846;2022-11-20T09:34:02;6.72;;;2.95;;
75129;SDS011;63703;44.716;37.846;2022-11-20T09:36:28;6.88;;;2.95;;
75129;SDS011;63703;44.716;37.846;2022-11-20T09:38:54;8.05;;;3.22;;
75129;SDS011;63703;44.716;37.846;2022-11-20T09:41:34;6.75;;;2.85;;
75129;SDS011;63703;44.716;37.846;2022-11-20T09:49:46;8.10;;;2.15;;
75129;SDS011;63703;44.716;37.846;2022-11-20T09:52:22;7.50;;;2.40;;
75129;SDS011;63703;44.716;37.846;2022-11-20T09:54:52;6.20;;;2.45;;
75129;SDS011;63703;44.716;37.846;2022-11-20T09:57:27;9.55;;;3.05;;
75129;SDS011;63703;44.716;37.846;2022-11-20T10:00:00;8.77;;;2.95;;
75129;SDS011;63703;44.716;37.846;2022-11-20T10:18:26;7.72;;;3.88;;
75129;SDS011;63703;44.716;37.846;2022-11-20T10:24:24;8.27;;;2.85;;
75129;SDS011;63703;44.716;37.846;2022-11-20T10:30:12;8.65;;;3.70;;
75129;SDS011;63703;44.716;37.846;2022-11-20T10:32:46;7.28;;;3.00;;
75129;SDS011;63703;44.716;37.846;2022-11-20T10:38:09;9.70;;;4.35;;
75129;SDS011;63703;44.716;37.846;2022-11-20T10:43:27;11.45;;;5.10;;
75129;SDS011;63703;44.716;37.846;2022-11-20T10:46:05;10.10;;;4.13;;
75129;SDS011;63703;44.716;37.846;2022-11-20T10:48:36;8.18;;;4.32;;
75129;SDS011;63703;44.716;37.846;2022-11-20T10:56:33;10.80;;;4.18;;
75129;SDS011;63703;44.716;37.846;2022-11-20T11:01:59;9.75;;;4.30;;
75129;SDS011;63703;44.716;37.846;2022-11-20T11:04:30;8.18;;;4.20;;
75129;SDS011;63703;44.716;37.846;2022-11-20T11:07:12;11.43;;;4.50;;
75129;SDS011;63703;44.716;37.846;2022-11-20T11:09:43;7.72;;;3.28;;
75129;SDS011;63703;44.716;37.846;2022-11-20T11:12:12;11.43;;;3.85;;
75129;SDS011;63703;44.716;37.846;2022-11-20T11:14:42;9.10;;;3.60;;
75129;SDS011;63703;44.716;37.846;2022-11-20T11:17:18;7.28;;;3.85;;
75129;SDS011;63703;44.716;37.846;2022-11-20T11:20:06;9.43;;;3.90;;
75129;SDS011;63703;44.716;37.846;2022-11-20T11:22:46;10.25;;;3.13;;
75129;SDS011;63703;44.716;37.846;2022-11-20T11:25:38;7.80;;;3.10;;
75129;SDS011;63703;44.716;37.846;2022-11-20T11:28:04;11.55;;;3.67;;
75129;SDS011;63703;44.716;37.846;2022-11-20T11:30:45;8.25;;;2.97;;
75129;SDS011;63703;44.716;37.846;2022-11-20T11:33:21;9.75;;;2.38;;
75129;SDS011;63703;44.716;37.846;2022-11-20T11:35:52;8.90;;;2.78;;
75129;SDS011;63703;44.716;37.846;2022-11-20T11:38:29;7.78;;;3.15;;
75129;SDS011;63703;44.716;37.846;2022-11-20T11:40:56;8.52;;;3.42;;
75129;SDS011;63703;44.716;37.846;2022-11-20T11:43:24;7.15;;;3.33;;
75129;SDS011;63703;44.716;37.846;2022-11-20T11:46:29;10.52;;;2.88;;
75129;SDS011;63703;44.716;37.846;2022-11-20T11:51:28;12.85;;;3.20;;
75129;SDS011;63703;44.716;37.846;2022-11-20T11:54:02;9.30;;;2.88;;
75129;SDS011;63703;44.716;37.846;2022-11-20T11:56:35;10.93;;;2.63;;
75129;SDS011;63703;44.716;37.846;2022-11-20T11:59:03;9.35;;;3.95;;
75129;SDS011;63703;44.716;37.846;2022-11-20T12:09:42;6.70;;;3.30;;
75129;SDS011;63703;44.716;37.846;2022-11-20T12:12:13;11.48;;;3.63;;
75129;SDS011;63703;44.716;37.846;2022-11-20T12:17:12;9.48;;;3.47;;
75129;SDS011;63703;44.716;37.846;2022-11-20T12:19:39;8.50;;;4.13;;
75129;SDS011;63703;44.716;37.846;2022-11-20T12:40:58;10.60;;;3.60;;
75129;SDS011;63703;44.716;37.846;2022-11-20T12:43:21;7.63;;;2.97;;
75129;SDS011;63703;44.716;37.846;2022-11-20T12:54:00;9.82;;;3.33;;
75129;SDS011;63703;44.716;37.846;2022-11-20T12:56:50;5.97;;;3.00;;
75129;SDS011;63703;44.716;37.846;2022-11-20T12:59:46;8.88;;;3.00;;
75129;SDS011;63703;44.716;37.846;2022-11-20T13:05:21;10.57;;;2.95;;
75129;SDS011;63703;44.716;37.846;2022-11-20T13:07:56;9.20;;;3.15;;
75129;SDS011;63703;44.716;37.846;2022-11-20T13:16:07;9.10;;;3.28;;
75129;SDS011;63703;44.716;37.846;2022-11-20T13:18:50;8.55;;;4.65;;
75129;SDS011;63703;44.716;37.846;2022-11-20T13:21:17;10.98;;;3.15;;
75129;SDS011;63703;44.716;37.846;2022-11-20T13:23:45;8.93;;;3.15;;
75129;SDS011;63703;44.716;37.846;2022-11-20T13:26:19;11.82;;;3.72;;
75129;SDS011;63703;44.716;37.846;2022-11-20T13:28:47;8.93;;;3.28;;
75129;SDS011;63703;44.716;37.846;2022-11-20T13:31:28;13.63;;;4.38;;
75129;SDS011;63703;44.716;37.846;2022-11-20T13:33:56;10.82;;;4.75;;
75129;SDS011;63703;44.716;37.846;2022-11-20T13:36:25;12.68;;;5.40;;
75129;SDS011;63703;44.716;37.846;2022-11-20T13:38:53;8.02;;;3.63;;
75129;SDS011;63703;44.716;37.846;2022-11-20T13:41:24;11.68;;;3.92;;
75129;SDS011;63703;44.716;37.846;2022-11-20T13:44:05;10.68;;;3.85;;
75129;SDS011;63703;44.716;37.846;2022-11-20T13:46:35;10.90;;;3.80;;
75129;SDS011;63703;44.716;37.846;2022-11-20T13:49:16;8.30;;;3.95;;
75129;SDS011;63703;44.716;37.846;2022-11-20T13:51:50;8.02;;;4.50;;
75129;SDS011;63703;44.716;37.846;2022-11-20T14:02:36;16.10;;;5.43;;
75129;SDS011;63703;44.716;37.846;2022-11-20T14:05:02;6.43;;;3.60;;
75129;SDS011;63703;44.716;37.846;2022-11-20T14:07:37;12.02;;;6.43;;
75129;SDS011;63703;44.716;37.846;2022-11-20T14:10:06;12.77;;;5.30;;
75129;SDS011;63703;44.716;37.846;2022-11-20T14:12:44;8.48;;;3.75;;
75129;SDS011;63703;44.716;37.846;2022-11-20T14:17:55;10.73;;;4.88;;
75129;SDS011;63703;44.716;37.846;2022-11-20T14:20:23;9.18;;;4.68;;
75129;SDS011;63703;44.716;37.846;2022-11-20T14:22:52;8.90;;;4.25;;
75129;SDS011;63703;44.716;37.846;2022-11-20T14:25:24;11.20;;;4.38;;
75129;SDS011;63703;44.716;37.846;2022-11-20T14:27:59;12.68;;;4.53;;
75129;SDS011;63703;44.716;37.846;2022-11-20T14:30:28;10.48;;;4.32;;
75129;SDS011;63703;44.716;37.846;2022-11-20T14:33:03;9.88;;;3.78;;
75129;SDS011;63703;44.716;37.846;2022-11-20T14:35:30;9.48;;;3.90;;
75129;SDS011;63703;44.716;37.846;2022-11-20T14:38:01;13.57;;;4.38;;
75129;SDS011;63703;44.716;37.846;2022-11-20T14:40:31;8.85;;;4.15;;
75129;SDS011;63703;44.716;37.846;2022-11-20T14:45:49;11.48;;;4.68;;
75129;SDS011;63703;44.716;37.846;2022-11-20T14:48:29;8.63;;;4.03;;
75129;SDS011;63703;44.716;37.846;2022-11-20T14:50:59;10.15;;;3.65;;
75129;SDS011;63703;44.716;37.846;2022-11-20T14:53:25;11.13;;;4.68;;
75129;SDS011;63703;44.716;37.846;2022-11-20T14:55:55;9.88;;;4.20;;
75129;SDS011;63703;44.716;37.846;2022-11-20T14:58:29;8.02;;;3.88;;
75129;SDS011;63703;44.716;37.846;2022-11-20T15:03:36;11.07;;;4.25;;
75129;SDS011;63703;44.716;37.846;2022-11-20T15:06:04;10.88;;;4.15;;
75129;SDS011;63703;44.716;37.846;2022-11-20T15:08:31;10.07;;;3.58;;
75129;SDS011;63703;44.716;37.846;2022-11-20T15:10:57;10.90;;;3.92;;
75129;SDS011;63703;44.716;37.846;2022-11-20T15:13:25;10.18;;;4.53;;
75129;SDS011;63703;44.716;37.846;2022-11-20T15:16:03;10.77;;;3.40;;
75129;SDS011;63703;44.716;37.846;2022-11-20T15:18:39;10.70;;;4.28;;
75129;SDS011;63703;44.716;37.846;2022-11-20T15:21:13;10.60;;;2.80;;
75129;SDS011;63703;44.716;37.846;2022-11-20T15:23:40;9.88;;;3.67;;
75129;SDS011;63703;44.716;37.846;2022-11-20T15:26:07;12.73;;;4.00;;
75129;SDS011;63703;44.716;37.846;2022-11-20T15:28:41;9.65;;;4.00;;
75129;SDS011;63703;44.716;37.846;2022-11-20T15:31:11;11.73;;;4.25;;
75129;SDS011;63703;44.716;37.846;2022-11-20T15:33:38;9.82;;;3.97;;
75129;SDS011;63703;44.716;37.846;2022-11-20T15:36:04;12.20;;;4.25;;
75129;SDS011;63703;44.716;37.846;2022-11-20T15:38:30;11.27;;;4.00;;
75129;SDS011;63703;44.716;37.846;2022-11-20T15:40:56;16.10;;;4.13;;
75129;SDS011;63703;44.716;37.846;2022-11-20T15:43:22;10.10;;;4.05;;
75129;SDS011;63703;44.716;37.846;2022-11-20T15:45:49;10.10;;;4.60;;
75129;SDS011;63703;44.716;37.846;2022-11-20T15:48:22;9.45;;;4.15;;
75129;SDS011;63703;44.716;37.846;2022-11-20T15:54:00;9.60;;;4.82;;
75129;SDS011;63703;44.716;37.846;2022-11-20T15:56:34;8.68;;;3.85;;
75129;SDS011;63703;44.716;37.846;2022-11-20T15:59:00;10.88;;;4.65;;
75129;SDS011;63703;44.716;37.846;2022-11-20T16:01:26;8.13;;;3.63;;
75129;SDS011;63703;44.716;37.846;2022-11-20T16:03:52;10.23;;;4.30;;
75129;SDS011;63703;44.716;37.846;2022-11-20T16:06:18;11.02;;;4.03;;
75129;SDS011;63703;44.716;37.846;2022-11-20T16:08:44;10.00;;;4.18;;
75129;SDS011;63703;44.716;37.846;2022-11-20T16:11:11;8.65;;;4.00;;
75129;SDS011;63703;44.716;37.846;2022-11-20T16:13:38;8.15;;;4.43;;
75129;SDS011;63703;44.716;37.846;2022-11-20T16:16:25;10.07;;;4.07;;
75129;SDS011;63703;44.716;37.846;2022-11-20T16:18:55;9.70;;;4.25;;
75129;SDS011;63703;44.716;37.846;2022-11-20T16:21:21;13.80;;;4.28;;
75129;SDS011;63703;44.716;37.846;2022-11-20T16:24:00;10.13;;;4.32;;
75129;SDS011;63703;44.716;37.846;2022-11-20T16:26:27;8.93;;;4.13;;
75129;SDS011;63703;44.716;37.846;2022-11-20T16:28:54;9.13;;;4.57;;
75129;SDS011;63703;44.716;37.846;2022-11-20T16:31:20;9.43;;;3.90;;
75129;SDS011;63703;44.716;37.846;2022-11-20T16:33:50;7.88;;;4.05;;